createdAt,value
2022-08-30T00:01:32.423Z,6.30
2022-08-30T00:04:34.428Z,5.63
2022-08-30T00:07:36.614Z,6.05
2022-08-30T00:10:39.103Z,6.28
2022-08-30T00:16:43.875Z,6.03
2022-08-30T00:19:46.293Z,6.50
2022-08-30T00:22:48.851Z,5.85
2022-08-30T00:25:51.085Z,5.68
2022-08-30T00:28:52.947Z,5.07
2022-08-30T00:31:55.281Z,5.93
2022-08-30T00:34:57.181Z,6.18
2022-08-30T00:37:59.408Z,5.47
2022-08-30T00:41:01.295Z,6.90
2022-08-30T00:44:04.390Z,6.38
2022-08-30T00:47:06.947Z,6.00
2022-08-30T00:50:11.065Z,6.18
2022-08-30T00:53:18.921Z,6.07
2022-08-30T00:56:22.191Z,6.03
2022-08-30T00:59:27.258Z,6.35
2022-08-30T01:02:29.673Z,6.18
2022-08-30T01:08:34.446Z,6.50
2022-08-30T01:11:37.759Z,7.00
2022-08-30T01:14:39.825Z,7.00
2022-08-30T01:17:45.150Z,6.50
2022-08-30T01:21:16.341Z,6.68
2022-08-30T01:24:19.063Z,7.07
2022-08-30T01:27:23.424Z,6.13
2022-08-30T01:30:25.419Z,6.25
2022-08-30T01:33:27.471Z,5.97
2022-08-30T01:36:29.801Z,5.57
2022-08-30T01:39:33.240Z,6.32
2022-08-30T01:42:35.567Z,6.20
2022-08-30T01:45:37.487Z,6.57
2022-08-30T01:48:51.972Z,6.28
2022-08-30T01:52:00.874Z,6.88
2022-08-30T01:55:04.301Z,6.68
2022-08-30T01:58:06.249Z,6.55
2022-08-30T02:01:11.696Z,6.13
2022-08-30T02:04:14.075Z,5.35
2022-08-30T02:07:17.043Z,6.28
2022-08-30T02:10:19.095Z,6.57
2022-08-30T02:13:21.111Z,5.82
2022-08-30T02:16:25.346Z,5.70
2022-08-30T02:19:27.322Z,6.35
2022-08-30T02:22:29.231Z,7.18
2022-08-30T02:25:31.306Z,6.72
2022-08-30T02:28:33.694Z,6.55
2022-08-30T02:34:37.756Z,6.40
2022-08-30T02:37:39.655Z,6.90
2022-08-30T02:40:41.881Z,7.95
2022-08-30T02:43:43.980Z,6.75
2022-08-30T02:46:46.273Z,7.05
2022-08-30T02:49:48.162Z,6.65
2022-08-30T02:52:50.079Z,7.07
2022-08-30T02:55:52.486Z,6.63
2022-08-30T02:58:54.722Z,6.90
2022-08-30T03:01:56.602Z,6.13
2022-08-30T03:04:58.506Z,6.25
2022-08-30T03:08:00.602Z,7.03
2022-08-30T03:11:03.066Z,7.28
2022-08-30T03:17:13.811Z,7.20
2022-08-30T03:20:17.724Z,6.78
2022-08-30T03:23:21.500Z,6.28
2022-08-30T03:26:23.965Z,6.70
2022-08-30T03:29:25.932Z,7.22
2022-08-30T03:32:28.266Z,6.28
2022-08-30T03:35:30.409Z,6.40
2022-08-30T03:38:35.891Z,6.68
2022-08-30T03:41:37.793Z,6.70
2022-08-30T03:44:41.634Z,7.30
2022-08-30T03:50:45.793Z,9.67
2022-08-30T03:53:48.095Z,7.18
2022-08-30T03:56:50.083Z,6.35
2022-08-30T03:59:51.986Z,6.28
2022-08-30T04:02:53.917Z,7.05
2022-08-30T04:05:56.742Z,7.10
2022-08-30T04:08:58.785Z,7.18
2022-08-30T04:12:00.767Z,6.53
2022-08-30T04:15:03.247Z,6.80
2022-08-30T04:21:10.312Z,5.78
2022-08-30T04:24:14.722Z,5.90
2022-08-30T04:27:17.006Z,6.85
2022-08-30T04:30:19.206Z,6.43
2022-08-30T04:33:21.643Z,6.45
2022-08-30T04:39:25.391Z,6.38
2022-08-30T04:42:28.568Z,8.18
2022-08-30T04:45:30.572Z,6.95
2022-08-30T04:48:33.290Z,7.63
2022-08-30T04:51:35.601Z,8.23
2022-08-30T04:54:37.542Z,8.25
2022-08-30T04:57:40.023Z,7.20
2022-08-30T05:03:45.417Z,7.43
2022-08-30T05:06:47.333Z,6.45
2022-08-30T05:09:49.184Z,7.68
2022-08-30T05:12:53.879Z,10.70
2022-08-30T05:15:55.859Z,10.68
2022-08-30T05:18:57.803Z,10.77
2022-08-30T05:22:00.286Z,10.55
2022-08-30T05:28:04.771Z,10.10
2022-08-30T05:31:22.518Z,10.43
2022-08-30T05:34:24.854Z,10.70
2022-08-30T05:37:27.237Z,10.10
2022-08-30T05:40:29.406Z,9.60
2022-08-30T05:43:32.150Z,10.60
2022-08-30T05:49:42.112Z,10.05
2022-08-30T05:52:44.354Z,10.35
2022-08-30T05:55:46.261Z,9.65
2022-08-30T05:58:48.747Z,11.32
2022-08-30T06:01:52.071Z,10.05
2022-08-30T06:04:53.976Z,8.88
2022-08-30T06:07:56.279Z,6.97
2022-08-30T06:10:58.172Z,6.75
2022-08-30T06:14:00.071Z,5.93
2022-08-30T06:17:02.013Z,6.00
2022-08-30T06:20:04.294Z,5.25
2022-08-30T06:23:06.186Z,5.75
2022-08-30T06:26:08.630Z,6.13
2022-08-30T06:32:13.791Z,6.10
2022-08-30T06:35:15.763Z,6.25
2022-08-30T06:38:17.800Z,5.75
2022-08-30T06:41:23.263Z,5.45
2022-08-30T06:44:25.572Z,5.65
2022-08-30T06:53:32.140Z,5.03
2022-08-30T06:56:36.113Z,4.95
2022-08-30T06:59:38.478Z,5.65
2022-08-30T07:02:41.395Z,5.38
2022-08-30T07:05:43.344Z,5.47
2022-08-30T07:08:45.868Z,4.90
2022-08-30T07:11:47.799Z,5.95
2022-08-30T07:14:50.111Z,5.75
2022-08-30T07:20:54.258Z,5.73
2022-08-30T07:23:58.624Z,5.95
2022-08-30T07:27:00.671Z,7.07
2022-08-30T07:30:02.755Z,6.78
2022-08-30T07:33:05.336Z,5.93
2022-08-30T07:36:07.636Z,6.60
2022-08-30T07:42:11.355Z,7.50
2022-08-30T07:45:13.237Z,6.88
2022-08-30T07:48:15.143Z,6.07
2022-08-30T07:51:21.278Z,6.57
2022-08-30T07:54:23.258Z,10.25
2022-08-30T07:57:26.180Z,12.90
2022-08-30T08:00:28.417Z,7.40
2022-08-30T08:03:30.841Z,6.93
2022-08-30T08:06:34.984Z,6.60
2022-08-30T08:09:38.072Z,7.28
2022-08-30T08:12:40.881Z,6.75
2022-08-30T08:15:43.237Z,6.82
2022-08-30T08:21:47.531Z,6.43
2022-08-30T08:24:52.331Z,6.22
2022-08-30T08:27:54.638Z,6.35
2022-08-30T08:30:57.376Z,5.72
2022-08-30T08:37:07.219Z,5.53
2022-08-30T08:40:14.004Z,6.38
2022-08-30T08:43:20.704Z,5.88
2022-08-30T08:46:25.678Z,5.15
2022-08-30T08:49:29.217Z,6.75
2022-08-30T08:52:39.982Z,5.40
2022-08-30T08:55:48.661Z,5.70
2022-08-30T08:58:53.950Z,4.80
2022-08-30T09:02:00.583Z,4.85
2022-08-30T09:05:03.186Z,4.88
2022-08-30T09:08:10.144Z,5.43
2022-08-30T09:11:21.977Z,5.00
2022-08-30T09:14:34.179Z,4.65
2022-08-30T09:18:02.272Z,4.07
2022-08-30T09:21:08.781Z,6.13
2022-08-30T09:24:15.726Z,5.32
2022-08-30T09:27:32.903Z,4.75
2022-08-30T09:33:38.284Z,4.70
2022-08-30T09:36:43.849Z,4.47
2022-08-30T09:39:46.164Z,4.68
2022-08-30T09:43:22.714Z,4.18
2022-08-30T09:46:28.108Z,4.07
2022-08-30T09:49:37.605Z,3.45
2022-08-30T09:52:55.711Z,4.40
2022-08-30T09:56:20.097Z,4.85
2022-08-30T09:59:38.203Z,4.43
2022-08-30T10:03:03.538Z,4.65
2022-08-30T10:06:15.219Z,3.97
2022-08-30T10:09:40.844Z,7.57
2022-08-30T10:12:49.193Z,4.82
2022-08-30T10:16:15.942Z,3.70
2022-08-30T10:19:37.789Z,4.63
2022-08-30T10:23:17.568Z,4.50
2022-08-30T10:26:36.874Z,4.38
2022-08-30T10:29:47.091Z,4.40
2022-08-30T10:32:55.570Z,4.43
2022-08-30T10:36:00.626Z,4.90
2022-08-30T10:39:03.173Z,4.32
2022-08-30T10:42:19.965Z,5.15
2022-08-30T10:45:23.134Z,5.00
2022-08-30T10:48:30.830Z,4.95
2022-08-30T10:51:43.420Z,4.70
2022-08-30T10:54:48.688Z,5.13
2022-08-30T10:57:51.777Z,4.53
2022-08-30T11:01:12.568Z,4.25
2022-08-30T11:05:00.727Z,4.63
2022-08-30T11:08:32.849Z,4.47
2022-08-30T11:12:24.523Z,4.65
2022-08-30T11:15:35.203Z,4.38
2022-08-30T11:18:51.899Z,4.88
2022-08-30T11:22:16.960Z,4.25
2022-08-30T11:25:57.417Z,4.90
2022-08-30T11:29:01.726Z,3.90
2022-08-30T11:32:12.673Z,4.60
2022-08-30T11:35:48.863Z,4.40
2022-08-30T11:38:50.703Z,4.63
2022-08-30T11:45:25.223Z,4.13
2022-08-30T11:49:01.079Z,4.00
2022-08-30T11:52:27.308Z,4.20
2022-08-30T11:55:43.898Z,4.22
2022-08-30T11:59:27.932Z,4.00
2022-08-30T12:03:08.702Z,3.70
2022-08-30T12:06:12.561Z,3.90
2022-08-30T12:09:23.277Z,4.18
2022-08-30T12:12:31.384Z,4.15
2022-08-30T12:15:54.973Z,4.18
2022-08-30T12:19:25.692Z,4.43
2022-08-30T12:22:27.977Z,4.30
2022-08-30T12:25:33.136Z,3.60
2022-08-30T12:28:35.149Z,3.92
2022-08-30T12:34:43.506Z,5.43
2022-08-30T12:37:59.876Z,4.65
2022-08-30T12:41:02.442Z,3.85
2022-08-30T12:44:13.091Z,17.35
2022-08-30T12:47:19.865Z,4.35
2022-08-30T12:50:26.522Z,4.82
2022-08-30T12:53:40.721Z,4.18
2022-08-30T12:57:19.301Z,3.92
2022-08-30T13:00:48.868Z,4.22
2022-08-30T13:04:21.384Z,5.70
2022-08-30T13:07:35.473Z,4.10
2022-08-30T13:10:37.568Z,3.10
2022-08-30T13:13:52.192Z,2.90
2022-08-30T13:17:25.593Z,3.30
2022-08-30T13:20:27.920Z,6.47
2022-08-30T13:23:30.305Z,3.30
2022-08-30T13:26:38.158Z,3.30
2022-08-30T13:29:42.099Z,3.10
2022-08-30T13:32:44.718Z,3.20
2022-08-30T13:35:47.139Z,3.55
2022-08-30T13:38:49.672Z,2.88
2022-08-30T13:41:52.331Z,3.53
2022-08-30T13:44:54.628Z,3.50
2022-08-30T13:47:56.632Z,3.40
2022-08-30T13:54:00.753Z,2.92
2022-08-30T13:57:03.623Z,3.25
2022-08-30T14:00:07.956Z,3.28
2022-08-30T14:03:10.245Z,3.50
2022-08-30T14:09:34.014Z,3.30
2022-08-30T14:19:22.238Z,2.83
2022-08-30T14:22:24.178Z,3.00
2022-08-30T14:25:26.153Z,2.90
2022-08-30T14:31:30.078Z,3.22
2022-08-30T14:34:35.317Z,3.58
2022-08-30T14:37:37.605Z,2.40
2022-08-30T14:40:41.658Z,2.95
2022-08-30T14:43:44.018Z,3.10
2022-08-30T14:46:46.256Z,3.20
2022-08-30T14:49:48.141Z,3.78
2022-08-30T14:52:50.375Z,3.47
2022-08-30T14:58:54.721Z,3.22
2022-08-30T15:01:57.064Z,3.45
2022-08-30T15:04:59.424Z,3.10
2022-08-30T15:08:01.323Z,3.67
2022-08-30T15:11:15.520Z,3.20
2022-08-30T15:14:17.832Z,3.33
2022-08-30T15:17:20.144Z,2.83
2022-08-30T15:20:22.052Z,3.45
2022-08-30T15:26:27.013Z,3.08
2022-08-30T15:29:31.503Z,3.35
2022-08-30T15:32:33.939Z,5.65
2022-08-30T15:35:35.924Z,4.88
2022-08-30T15:41:40.522Z,3.40
2022-08-30T15:44:47.247Z,3.92
2022-08-30T15:47:49.731Z,3.25
2022-08-30T15:50:57.561Z,3.42
2022-08-30T15:53:59.935Z,3.53
2022-08-30T15:57:02.463Z,3.92
2022-08-30T16:00:08.607Z,3.88
2022-08-30T16:03:10.703Z,5.78
2022-08-30T16:09:16.754Z,4.80
2022-08-30T16:12:23.671Z,3.67
2022-08-30T16:15:26.816Z,3.53
2022-08-30T16:18:28.902Z,3.58
2022-08-30T16:21:33.861Z,3.97
2022-08-30T16:24:36.318Z,4.07
2022-08-30T16:27:38.830Z,4.18
2022-08-30T16:30:42.445Z,3.50
2022-08-30T16:33:46.543Z,4.65
2022-08-30T16:36:49.137Z,4.10
2022-08-30T16:39:52.684Z,4.18
2022-08-30T16:42:55.311Z,4.38
2022-08-30T16:46:03.860Z,4.43
2022-08-30T16:49:08.759Z,4.60
2022-08-30T16:52:11.019Z,3.97
2022-08-30T16:55:13.778Z,4.40
2022-08-30T16:58:18.992Z,4.63
2022-08-30T17:01:23.206Z,4.82
2022-08-30T17:04:26.172Z,4.30
2022-08-30T17:07:29.380Z,5.38
2022-08-30T17:10:33.248Z,4.18
2022-08-30T17:13:36.222Z,5.00
2022-08-30T17:16:39.180Z,4.32
2022-08-30T17:19:44.211Z,4.75
2022-08-30T17:22:46.408Z,5.05
2022-08-30T17:25:49.428Z,4.53
2022-08-30T17:28:51.805Z,4.32
2022-08-30T17:34:56.364Z,4.90
2022-08-30T17:37:58.928Z,4.32
2022-08-30T17:41:09.082Z,4.78
2022-08-30T17:44:12.467Z,4.25
2022-08-30T17:47:14.864Z,4.20
2022-08-30T17:50:19.576Z,4.85
2022-08-30T17:53:22.082Z,5.30
2022-08-30T17:56:29.153Z,5.10
2022-08-30T17:59:37.815Z,5.25
2022-08-30T18:02:41.938Z,5.07
2022-08-30T18:05:44.295Z,5.22
2022-08-30T18:08:49.523Z,4.45
2022-08-30T18:11:56.342Z,4.82
2022-08-30T18:14:59.123Z,4.38
2022-08-30T18:18:01.182Z,4.47
2022-08-30T18:21:13.365Z,5.45
2022-08-30T18:24:20.187Z,5.78
2022-08-30T18:27:23.561Z,5.82
2022-08-30T18:30:29.881Z,5.75
2022-08-30T18:33:36.053Z,6.75
2022-08-30T18:39:42.578Z,6.07
2022-08-30T18:42:44.707Z,6.30
2022-08-30T18:45:47.640Z,5.03
2022-08-30T18:48:51.222Z,5.97
2022-08-30T18:51:53.907Z,5.90
2022-08-30T18:54:56.586Z,5.50
2022-08-30T18:58:01.795Z,5.97
2022-08-30T19:01:05.094Z,5.65
2022-08-30T19:07:12.877Z,5.50
2022-08-30T19:10:21.079Z,5.95
2022-08-30T19:13:23.832Z,5.68
2022-08-30T19:16:26.396Z,5.75
2022-08-30T19:19:28.721Z,6.32
2022-08-30T19:23:03.426Z,5.68
2022-08-30T19:25:53.876Z,6.07
2022-08-30T19:28:57.193Z,5.47
2022-08-30T19:31:59.910Z,6.28
2022-08-30T19:35:02.723Z,5.68
2022-08-30T19:38:05.609Z,5.63
2022-08-30T19:41:08.220Z,6.47
2022-08-30T19:44:10.347Z,5.93
2022-08-30T19:47:12.419Z,5.95
2022-08-30T19:50:15.178Z,5.97
2022-08-30T19:53:17.994Z,6.20
2022-08-30T19:56:20.483Z,7.07
2022-08-30T19:59:22.998Z,6.63
2022-08-30T20:02:25.751Z,5.93
2022-08-30T20:05:30.213Z,5.85
2022-08-30T20:08:32.491Z,6.22
2022-08-30T20:11:34.620Z,7.28
2022-08-30T20:14:36.753Z,6.05
2022-08-30T20:18:02.657Z,6.53
2022-08-30T20:21:02.425Z,6.35
2022-08-30T20:24:09.735Z,6.00
2022-08-30T20:27:13.816Z,6.68
2022-08-30T20:30:17.649Z,6.38
2022-08-30T20:33:22.254Z,6.55
2022-08-30T20:36:24.712Z,6.22
2022-08-30T20:42:29.354Z,6.35
2022-08-30T20:45:33.119Z,6.30
2022-08-30T20:48:35.655Z,7.18
2022-08-30T20:54:41.553Z,6.47
2022-08-30T20:57:44.094Z,6.35
2022-08-30T21:00:53.124Z,6.63
2022-08-30T21:03:55.564Z,6.68
2022-08-30T21:10:00.381Z,7.10
2022-08-30T21:16:04.879Z,8.55
2022-08-30T21:22:09.340Z,7.25
2022-08-30T21:28:13.946Z,6.50
2022-08-30T21:31:22.477Z,6.50
2022-08-30T21:34:25.127Z,7.03
2022-08-30T21:37:27.780Z,7.40
2022-08-30T21:40:30.403Z,7.22
2022-08-30T21:43:32.501Z,6.22
2022-08-30T21:46:35.779Z,7.30
2022-08-30T21:49:38.241Z,6.30
2022-08-30T21:55:42.250Z,6.40
2022-08-30T21:58:46.189Z,6.55
2022-08-30T22:04:51.254Z,6.90
2022-08-30T22:10:55.350Z,6.20
2022-08-30T22:13:57.615Z,6.40
2022-08-30T22:17:00.670Z,6.72
2022-08-30T22:20:03.406Z,6.40
2022-08-30T22:23:05.489Z,6.43
2022-08-30T22:26:09.879Z,6.32
2022-08-30T22:29:12.704Z,6.90
2022-08-30T22:32:15.061Z,6.28
2022-08-30T22:38:19.174Z,6.25
2022-08-30T22:41:25.535Z,6.63
2022-08-30T22:44:32.644Z,8.55
2022-08-30T22:47:34.777Z,6.00
2022-08-30T22:50:37.281Z,6.82
2022-08-30T22:56:42.010Z,5.88
2022-08-30T23:02:48.617Z,6.22
2022-08-30T23:05:51.142Z,5.75
2022-08-30T23:11:56.105Z,6.63
2022-08-30T23:14:58.676Z,6.10
2022-08-30T23:18:00.738Z,5.88
2022-08-30T23:21:05.255Z,5.68
2022-08-30T23:24:07.503Z,5.95
2022-08-30T23:27:09.546Z,5.70
2022-08-30T23:30:12.041Z,5.90
2022-08-30T23:36:16.385Z,5.68
2022-08-30T23:39:18.441Z,6.05
2022-08-30T23:42:20.514Z,5.30
2022-08-30T23:45:22.624Z,5.50
2022-08-30T23:48:25.234Z,6.03
2022-08-30T23:54:29.340Z,6.50
2022-08-30T23:57:31.386Z,5.55
